createdAt,value
2019-04-05T00:01:56.365Z,28.27
2019-04-05T00:04:23.931Z,30.10
2019-04-05T00:06:51.396Z,33.17
2019-04-05T00:09:18.964Z,28.07
2019-04-05T00:11:46.470Z,31.00
2019-04-05T00:14:13.960Z,29.90
2019-04-05T00:16:41.480Z,31.10
2019-04-05T00:19:08.976Z,32.77
2019-04-05T00:21:36.481Z,33.33
2019-04-05T00:24:04.020Z,33.97
2019-04-05T00:26:31.496Z,29.70
2019-04-05T00:28:58.968Z,30.37
2019-04-05T00:31:26.467Z,30.57
2019-04-05T00:33:53.967Z,31.60
2019-04-05T00:36:21.484Z,29.87
2019-04-05T00:38:48.952Z,29.83
2019-04-05T00:41:16.489Z,30.20
2019-04-05T00:43:43.933Z,27.50
2019-04-05T00:46:11.437Z,28.87
2019-04-05T00:48:38.998Z,30.17
2019-04-05T00:51:06.469Z,28.07
2019-04-05T00:53:33.973Z,29.33
2019-04-05T00:56:01.585Z,25.00
2019-04-05T00:58:29.070Z,27.90
2019-04-05T01:00:56.547Z,28.13
2019-04-05T01:03:24.041Z,27.13
2019-04-05T01:05:51.545Z,27.20
2019-04-05T01:08:19.036Z,33.37
2019-04-05T01:10:46.536Z,28.87
2019-04-05T01:13:14.159Z,26.57
2019-04-05T01:15:41.617Z,29.93
2019-04-05T01:18:09.373Z,27.40
2019-04-05T01:20:39.210Z,31.07
2019-04-05T01:23:06.817Z,30.07
2019-04-05T01:25:35.467Z,28.93
2019-04-05T01:28:02.975Z,27.53
2019-04-05T01:30:30.456Z,25.60
2019-04-05T01:32:57.939Z,31.43
2019-04-05T01:35:25.410Z,25.40
2019-04-05T01:37:52.891Z,30.53
2019-04-05T01:40:20.407Z,28.03
2019-04-05T01:42:48.180Z,27.17
2019-04-05T01:45:15.683Z,29.57
2019-04-05T01:47:43.160Z,27.90
2019-04-05T01:50:10.864Z,27.97
2019-04-05T01:52:41.721Z,27.47
2019-04-05T01:55:09.287Z,28.10
2019-04-05T01:57:36.783Z,29.60
2019-04-05T02:00:05.986Z,29.03
2019-04-05T02:02:33.480Z,31.13
2019-04-05T02:05:00.981Z,30.90
2019-04-05T02:07:28.496Z,30.00
2019-04-05T02:09:57.129Z,30.10
2019-04-05T02:12:24.605Z,31.63
2019-04-05T02:14:52.100Z,29.73
2019-04-05T02:17:19.702Z,29.27
2019-04-05T02:19:47.181Z,30.27
2019-04-05T02:22:14.693Z,30.50
2019-04-05T02:24:42.156Z,29.57
2019-04-05T02:27:09.669Z,30.83
2019-04-05T02:29:37.136Z,27.10
2019-04-05T02:32:04.602Z,32.43
2019-04-05T02:34:32.082Z,27.73
2019-04-05T02:36:59.848Z,29.27
2019-04-05T02:39:27.328Z,30.77
2019-04-05T02:41:56.128Z,30.30
2019-04-05T02:44:24.446Z,30.03
2019-04-05T02:46:53.808Z,34.87
2019-04-05T02:49:24.594Z,26.53
2019-04-05T02:51:54.613Z,31.33
2019-04-05T02:54:22.417Z,34.00
2019-04-05T02:56:50.412Z,26.93
2019-04-05T02:59:18.258Z,30.50
2019-04-05T03:01:46.263Z,33.50
2019-04-05T03:04:14.369Z,32.87
2019-04-05T03:06:42.045Z,31.07
2019-04-05T03:09:10.666Z,37.13
2019-04-05T03:11:38.842Z,30.97
2019-04-05T03:14:09.119Z,32.57
2019-04-05T03:16:41.796Z,32.50
2019-04-05T03:19:17.744Z,29.93
2019-04-05T03:21:50.194Z,30.57
2019-04-05T03:24:21.166Z,31.20
2019-04-05T03:26:55.314Z,33.87
2019-04-05T03:29:23.531Z,32.30
2019-04-05T03:31:51.817Z,33.30
2019-04-05T03:34:19.479Z,36.30
2019-04-05T03:36:47.276Z,37.77
2019-04-05T03:39:15.075Z,33.97
2019-04-05T03:41:42.877Z,37.10
2019-04-05T03:44:10.406Z,33.73
2019-04-05T03:46:54.336Z,31.07
2019-04-05T03:49:08.179Z,35.20
2019-04-05T03:51:36.018Z,34.37
2019-04-05T03:54:04.244Z,33.10
2019-04-05T03:56:32.259Z,34.97
2019-04-05T03:58:59.978Z,37.03
2019-04-05T04:01:27.762Z,32.20
2019-04-05T04:03:55.406Z,31.93
2019-04-05T04:06:22.894Z,35.27
2019-04-05T04:08:50.504Z,34.83
2019-04-05T04:11:17.963Z,35.73
2019-04-05T04:13:45.469Z,30.43
2019-04-05T04:16:13.095Z,33.83
2019-04-05T04:18:40.682Z,34.40
2019-04-05T04:21:33.253Z,35.40
2019-04-05T04:24:00.886Z,35.30
2019-04-05T04:26:28.582Z,32.83
2019-04-05T04:28:57.004Z,36.67
2019-04-05T04:31:24.521Z,36.97
2019-04-05T04:33:52.618Z,38.10
2019-04-05T04:36:20.872Z,31.30
2019-04-05T04:38:49.422Z,40.23
2019-04-05T04:41:16.890Z,36.83
2019-04-05T04:43:44.597Z,33.80
2019-04-05T04:46:12.499Z,40.33
2019-04-05T04:48:41.298Z,45.40
2019-04-05T04:51:09.864Z,33.80
2019-04-05T04:53:37.547Z,38.80
2019-04-05T04:56:05.394Z,41.13
2019-04-05T04:58:32.899Z,40.83
2019-04-05T05:01:00.410Z,41.73
2019-04-05T05:03:27.929Z,33.53
2019-04-05T05:05:55.590Z,41.13
2019-04-05T05:08:23.439Z,38.93
2019-04-05T05:10:50.906Z,43.63
2019-04-05T05:13:18.414Z,40.83
2019-04-05T05:15:46.042Z,45.47
2019-04-05T05:18:13.987Z,45.33
2019-04-05T05:20:42.826Z,49.10
2019-04-05T05:23:10.494Z,44.40
2019-04-05T05:25:38.020Z,42.70
2019-04-05T05:28:05.660Z,42.47
2019-04-05T05:30:33.353Z,46.67
2019-04-05T05:33:01.229Z,46.83
2019-04-05T05:35:28.990Z,44.17
2019-04-05T05:37:56.562Z,44.07
2019-04-05T05:40:34.243Z,48.13
2019-04-05T05:42:53.503Z,48.13
2019-04-05T05:45:21.034Z,46.30
2019-04-05T05:47:52.214Z,51.50
2019-04-05T05:50:17.889Z,48.33
2019-04-05T05:52:45.529Z,48.13
2019-04-05T05:55:13.045Z,47.30
2019-04-05T05:57:40.548Z,53.90
2019-04-05T06:00:10.429Z,55.33
2019-04-05T06:02:38.886Z,46.13
2019-04-05T06:05:07.174Z,54.33
2019-04-05T06:07:34.692Z,47.30
2019-04-05T06:10:02.194Z,45.27
2019-04-05T06:12:29.664Z,45.73
2019-04-05T06:14:57.177Z,48.23
2019-04-05T06:17:24.638Z,43.53
2019-04-05T06:19:52.130Z,52.23
2019-04-05T06:22:19.569Z,47.53
2019-04-05T06:24:47.059Z,42.80
2019-04-05T06:27:14.551Z,39.67
2019-04-05T06:29:42.006Z,37.97
2019-04-05T06:32:09.535Z,43.17
2019-04-05T06:34:37.022Z,47.83
2019-04-05T06:37:04.498Z,40.97
2019-04-05T06:39:31.993Z,43.53
2019-04-05T06:41:59.587Z,44.70
2019-04-05T06:44:28.057Z,42.70
2019-04-05T06:46:55.714Z,41.87
2019-04-05T06:49:23.218Z,44.13
2019-04-05T06:51:50.683Z,78.37
2019-04-05T06:54:18.284Z,46.63
2019-04-05T06:56:45.754Z,39.37
2019-04-05T06:59:13.234Z,37.93
2019-04-05T07:01:40.701Z,41.00
2019-04-05T07:04:08.193Z,37.30
2019-04-05T07:06:35.687Z,37.87
2019-04-05T07:09:05.161Z,39.60
2019-04-05T07:11:32.705Z,40.73
2019-04-05T07:14:00.240Z,38.93
2019-04-05T07:16:31.132Z,41.73
2019-04-05T07:18:58.638Z,37.87
2019-04-05T07:21:26.102Z,38.30
2019-04-05T07:23:53.571Z,35.83
2019-04-05T07:26:21.261Z,34.33
2019-04-05T07:28:48.821Z,40.50
2019-04-05T07:31:16.297Z,33.90
2019-04-05T07:33:43.803Z,35.53
2019-04-05T07:36:11.262Z,31.90
2019-04-05T07:38:38.778Z,37.40
2019-04-05T07:41:06.268Z,33.57
2019-04-05T07:43:33.769Z,32.87
2019-04-05T07:46:01.226Z,60.37
2019-04-05T07:48:28.703Z,32.00
2019-04-05T07:50:56.255Z,33.60
2019-04-05T07:53:23.737Z,32.13
2019-04-05T07:55:51.256Z,33.00
2019-04-05T07:58:18.710Z,37.77
2019-04-05T08:00:52.251Z,35.17
2019-04-05T08:03:20.720Z,31.57
2019-04-05T08:05:48.805Z,33.60
2019-04-05T08:08:29.922Z,35.37
2019-04-05T08:10:57.508Z,32.80
2019-04-05T08:13:26.782Z,35.20
2019-04-05T08:15:54.286Z,35.10
2019-04-05T08:18:21.728Z,38.00
2019-04-05T08:20:49.195Z,35.23
2019-04-05T08:23:16.695Z,35.20
2019-04-05T08:25:44.165Z,31.67
2019-04-05T08:28:11.672Z,36.60
2019-04-05T08:30:39.116Z,31.50
2019-04-05T08:33:06.633Z,35.03
2019-04-05T08:35:34.134Z,34.33
2019-04-05T08:38:01.633Z,37.90
2019-04-05T08:40:29.113Z,32.40
2019-04-05T08:42:56.575Z,37.90
2019-04-05T08:45:24.072Z,32.03
2019-04-05T08:47:51.671Z,35.97
2019-04-05T08:50:19.179Z,34.63
2019-04-05T08:52:46.680Z,32.57
2019-04-05T08:55:14.135Z,35.53
2019-04-05T08:57:41.647Z,33.77
2019-04-05T09:00:09.326Z,32.17
2019-04-05T09:02:36.814Z,34.30
2019-04-05T09:05:04.620Z,30.83
2019-04-05T09:07:32.104Z,30.73
2019-04-05T09:09:59.552Z,32.20
2019-04-05T09:12:27.048Z,29.10
2019-04-05T09:14:54.538Z,34.53
2019-04-05T09:17:21.996Z,32.80
2019-04-05T09:19:49.520Z,34.97
2019-04-05T09:22:17.017Z,35.33
2019-04-05T09:24:44.486Z,34.53
2019-04-05T09:27:11.982Z,32.53
2019-04-05T09:29:39.483Z,32.17
2019-04-05T09:32:06.964Z,38.00
2019-04-05T09:34:34.504Z,38.37
2019-04-05T09:37:01.976Z,34.30
2019-04-05T09:39:29.672Z,33.90
2019-04-05T09:41:57.142Z,34.77
2019-04-05T09:44:24.585Z,35.87
2019-04-05T09:46:52.109Z,34.90
2019-04-05T09:49:19.631Z,32.00
2019-04-05T09:51:47.089Z,34.73
2019-04-05T09:54:14.535Z,38.60
2019-04-05T09:56:42.081Z,32.27
2019-04-05T09:59:09.543Z,30.73
2019-04-05T10:01:37.058Z,35.63
2019-04-05T10:04:04.550Z,39.40
2019-04-05T10:06:31.996Z,33.07
2019-04-05T10:08:59.474Z,34.10
2019-04-05T10:11:26.937Z,49.67
2019-04-05T10:13:54.439Z,35.40
2019-04-05T10:16:21.932Z,33.47
2019-04-05T10:18:51.528Z,33.97
2019-04-05T10:21:18.863Z,31.50
2019-04-05T10:23:46.354Z,30.03
2019-04-05T10:26:13.825Z,27.13
2019-04-05T10:28:41.282Z,30.90
2019-04-05T10:31:08.765Z,33.70
2019-04-05T10:33:36.250Z,29.43
2019-04-05T10:36:03.759Z,29.40
2019-04-05T10:38:31.246Z,31.20
2019-04-05T10:40:58.706Z,31.70
2019-04-05T10:43:26.203Z,31.40
2019-04-05T10:45:53.672Z,32.13
2019-04-05T10:48:21.112Z,32.40
2019-04-05T10:50:48.617Z,30.97
2019-04-05T10:53:16.112Z,28.70
2019-04-05T10:55:43.577Z,36.40
2019-04-05T10:58:11.079Z,27.50
2019-04-05T11:00:38.556Z,28.90
2019-04-05T11:03:06.041Z,29.37
2019-04-05T11:05:33.490Z,28.90
2019-04-05T11:08:00.991Z,30.60
2019-04-05T11:10:28.449Z,27.80
2019-04-05T11:12:56.020Z,29.83
2019-04-05T11:15:23.476Z,27.87
2019-04-05T11:17:50.969Z,28.80
2019-04-05T11:20:22.182Z,30.03
2019-04-05T11:22:50.014Z,36.10
2019-04-05T11:25:20.329Z,31.97
2019-04-05T11:27:46.655Z,32.93
2019-04-05T11:30:16.164Z,28.67
2019-04-05T11:32:43.786Z,27.33
2019-04-05T11:35:11.514Z,27.57
2019-04-05T11:37:39.803Z,26.13
2019-04-05T11:40:08.181Z,32.30
2019-04-05T11:42:36.979Z,44.20
2019-04-05T11:45:04.915Z,26.80
2019-04-05T11:47:32.890Z,25.53
2019-04-05T11:50:02.633Z,27.33
2019-04-05T11:52:30.240Z,27.13
2019-04-05T11:54:57.768Z,27.83
2019-04-05T11:57:25.263Z,29.53
2019-04-05T11:59:52.750Z,27.77
2019-04-05T12:02:42.780Z,26.40
2019-04-05T12:05:12.258Z,26.07
2019-04-05T12:07:39.714Z,26.30
2019-04-05T12:10:07.634Z,25.67
2019-04-05T12:12:35.107Z,32.63
2019-04-05T12:15:06.213Z,26.57
2019-04-05T12:17:35.000Z,26.00
2019-04-05T12:20:02.713Z,27.63
2019-04-05T12:22:32.647Z,27.27
2019-04-05T12:25:02.813Z,29.83
2019-04-05T12:27:30.584Z,26.50
2019-04-05T12:29:58.116Z,24.50
2019-04-05T12:32:33.678Z,24.43
2019-04-05T12:34:58.098Z,29.33
2019-04-05T12:37:25.658Z,25.40
2019-04-05T12:39:53.153Z,30.27
2019-04-05T12:42:20.694Z,28.50
2019-04-05T12:44:48.230Z,26.50
2019-04-05T12:47:16.232Z,30.23
2019-04-05T12:49:45.481Z,27.53
2019-04-05T12:52:22.602Z,26.43
2019-04-05T12:54:42.599Z,30.40
2019-04-05T12:57:10.099Z,27.13
2019-04-05T12:59:37.685Z,25.87
2019-04-05T13:02:05.284Z,27.93
2019-04-05T13:04:32.780Z,31.77
2019-04-05T13:07:00.269Z,27.60
2019-04-05T13:09:27.789Z,28.83
2019-04-05T13:11:57.268Z,27.23
2019-04-05T13:14:26.521Z,25.27
2019-04-05T13:16:53.970Z,28.53
2019-04-05T13:19:21.526Z,29.60
2019-04-05T13:21:49.063Z,26.57
2019-04-05T13:24:16.574Z,30.03
2019-04-05T13:26:44.148Z,34.87
2019-04-05T13:29:11.642Z,29.33
2019-04-05T13:31:39.156Z,26.43
2019-04-05T13:34:06.746Z,27.43
2019-04-05T13:36:34.230Z,29.30
2019-04-05T13:39:01.737Z,32.73
2019-04-05T13:41:31.312Z,29.83
2019-04-05T13:44:01.177Z,28.00
2019-04-05T13:46:27.896Z,27.97
2019-04-05T13:48:55.391Z,29.60
2019-04-05T13:51:28.171Z,29.37
2019-04-05T13:53:52.293Z,30.87
2019-04-05T13:56:19.811Z,28.37
2019-04-05T13:58:47.433Z,26.30
2019-04-05T14:01:14.965Z,26.20
2019-04-05T14:03:42.507Z,25.07
2019-04-05T14:06:10.784Z,30.30
2019-04-05T14:08:41.158Z,25.93
2019-04-05T14:11:08.358Z,27.30
2019-04-05T14:13:37.767Z,30.63
2019-04-05T14:16:06.427Z,31.10
2019-04-05T14:18:33.913Z,31.07
2019-04-05T14:21:01.456Z,27.67
2019-04-05T14:23:28.983Z,27.77
2019-04-05T14:25:59.599Z,28.70
2019-04-05T14:28:25.792Z,26.17
2019-04-05T14:30:53.263Z,26.63
2019-04-05T14:33:24.386Z,27.17
2019-04-05T14:35:50.086Z,26.57
2019-04-05T14:38:19.854Z,27.20
2019-04-05T14:40:47.338Z,25.70
2019-04-05T14:43:15.607Z,27.17
2019-04-05T14:45:43.253Z,29.83
2019-04-05T17:12:28.757Z,30.47
2019-04-05T17:14:56.270Z,32.93
2019-04-05T17:17:23.796Z,36.50
2019-04-05T17:19:51.279Z,37.30
2019-04-05T17:22:18.750Z,31.73
2019-04-05T17:24:46.271Z,30.87
2019-04-05T17:27:13.789Z,31.20
2019-04-05T17:29:41.285Z,29.93
2019-04-05T17:32:08.793Z,33.87
2019-04-05T17:34:36.331Z,30.33
2019-04-05T17:37:03.801Z,30.37
2019-04-05T17:39:31.341Z,30.97
2019-04-05T17:41:58.828Z,31.00
2019-04-05T17:44:26.342Z,30.93
2019-04-05T17:46:53.840Z,30.90
2019-04-05T17:49:21.363Z,31.20
2019-04-05T17:51:48.842Z,32.43
2019-04-05T17:54:16.384Z,39.60
2019-04-05T17:56:44.282Z,37.43
2019-04-05T17:59:12.228Z,35.50
2019-04-05T18:01:39.762Z,37.83
2019-04-05T18:04:07.247Z,34.87
2019-04-05T18:06:35.069Z,33.13
2019-04-05T18:09:04.959Z,33.87
2019-04-05T18:11:32.529Z,36.53
2019-04-05T18:14:00.045Z,41.10
2019-04-05T18:16:27.518Z,38.53
2019-04-05T18:18:56.277Z,33.87
2019-04-05T18:21:23.746Z,35.70
2019-04-05T18:23:51.220Z,32.40
2019-04-05T18:26:18.750Z,37.53
2019-04-05T18:28:46.308Z,39.43
2019-04-05T18:31:14.010Z,34.13
2019-04-05T18:33:41.566Z,33.50
2019-04-05T18:36:09.044Z,34.53
2019-04-05T18:38:36.627Z,36.93
2019-04-05T18:41:04.372Z,35.47
2019-04-05T18:43:32.019Z,36.67
2019-04-05T18:46:02.496Z,35.90
2019-04-05T18:48:30.006Z,38.03
2019-04-05T18:50:57.502Z,51.50
2019-04-05T18:53:36.762Z,35.20
2019-04-05T18:55:54.400Z,35.03
2019-04-05T18:58:22.067Z,37.27
2019-04-05T19:00:49.570Z,36.50
2019-04-05T19:03:17.056Z,33.80
2019-04-05T19:05:44.545Z,38.83
2019-04-05T19:08:12.059Z,34.23
2019-04-05T19:10:39.592Z,36.57
2019-04-05T19:13:07.071Z,35.93
2019-04-05T19:15:34.629Z,35.07
2019-04-05T19:18:02.222Z,37.23
2019-04-05T19:20:29.758Z,37.63
2019-04-05T19:22:57.291Z,36.57
2019-04-05T19:25:24.780Z,35.57
2019-04-05T19:27:52.322Z,35.87
2019-04-05T19:50:14.437Z,41.43
2019-04-05T19:52:42.130Z,39.53
2019-04-05T19:55:09.622Z,41.33
2019-04-05T19:57:37.118Z,50.37
2019-04-05T20:00:05.714Z,39.90
2019-04-05T20:02:33.203Z,41.50
2019-04-05T20:05:00.659Z,38.93
2019-04-05T20:07:28.167Z,37.33
2019-04-05T20:09:55.689Z,35.67
2019-04-05T20:12:23.208Z,40.30
2019-04-05T20:14:50.715Z,38.60
2019-04-05T20:17:18.209Z,36.30
2019-04-05T20:19:45.715Z,38.07
2019-04-05T20:22:13.203Z,40.73
2019-04-05T20:24:40.701Z,32.97
2019-04-05T20:27:08.199Z,40.33
2019-04-05T20:29:35.725Z,34.60
2019-04-05T20:32:03.220Z,36.03
2019-04-05T20:34:30.713Z,32.50
2019-04-05T20:36:58.292Z,35.80
2019-04-05T20:39:25.810Z,40.17
2019-04-05T20:41:53.305Z,42.73
2019-04-05T20:44:20.800Z,37.63
2019-04-05T20:46:49.142Z,35.03
2019-04-05T20:49:16.734Z,37.70
2019-04-05T20:51:44.215Z,35.83
2019-04-05T20:54:11.708Z,41.43
2019-04-05T20:56:39.224Z,37.50
2019-04-05T20:59:06.762Z,41.87
2019-04-05T21:01:34.255Z,40.23
2019-04-05T21:04:01.740Z,39.17
2019-04-05T21:06:29.269Z,41.27
2019-04-05T21:08:56.775Z,34.43
2019-04-05T21:11:24.289Z,39.43
2019-04-05T21:13:51.792Z,37.50
2019-04-05T21:16:19.269Z,37.60
2019-04-05T21:18:46.786Z,40.07
2019-04-05T21:21:14.314Z,40.50
2019-04-05T21:23:41.870Z,37.60
2019-04-05T21:26:09.300Z,41.13
2019-04-05T21:28:38.556Z,42.37
2019-04-05T21:31:06.039Z,38.97
2019-04-05T21:33:33.540Z,40.47
2019-04-05T21:36:01.047Z,39.40
2019-04-05T21:38:28.657Z,38.63
2019-04-05T21:40:56.195Z,41.20
2019-04-05T21:43:23.657Z,38.90
2019-04-05T21:45:51.136Z,37.83
2019-04-05T21:48:18.671Z,39.90
2019-04-05T21:50:46.138Z,37.93
2019-04-05T21:53:13.588Z,40.00
2019-04-05T21:55:41.125Z,37.93
2019-04-05T21:58:08.628Z,36.93
2019-04-05T22:00:43.993Z,36.50
2019-04-05T22:03:11.540Z,36.33
2019-04-05T22:05:38.969Z,39.40
2019-04-05T22:08:06.415Z,36.13
2019-04-05T22:10:34.068Z,39.30
2019-04-05T22:13:01.562Z,37.70
2019-04-05T22:15:29.058Z,39.87
2019-04-05T22:17:56.547Z,43.27
2019-04-05T22:20:24.102Z,38.13
2019-04-05T22:22:51.583Z,38.97
2019-04-05T22:25:19.067Z,34.90
2019-04-05T22:27:46.756Z,39.73
2019-04-05T22:30:14.763Z,37.87
2019-04-05T22:32:42.160Z,36.60
2019-04-05T22:35:09.692Z,41.43
2019-04-05T22:37:37.207Z,34.63
2019-04-05T22:40:05.445Z,36.37
2019-04-05T22:42:32.920Z,36.43
2019-04-05T22:45:00.427Z,40.73
2019-04-05T22:47:27.890Z,38.00
2019-04-05T22:49:55.386Z,34.67
2019-04-05T22:52:22.890Z,35.30
2019-04-05T22:54:50.349Z,36.93
2019-04-05T22:57:17.847Z,38.93
2019-04-05T22:59:45.331Z,36.43
2019-04-05T23:02:12.805Z,35.80
2019-04-05T23:04:40.256Z,39.23
2019-04-05T23:07:07.776Z,35.47
2019-04-05T23:09:35.258Z,35.20
2019-04-05T23:12:02.736Z,35.73
2019-04-05T23:14:30.270Z,33.87
2019-04-05T23:16:57.767Z,38.00
2019-04-05T23:19:25.229Z,41.73
2019-04-05T23:21:52.722Z,39.37
2019-04-05T23:24:20.240Z,41.70
2019-04-05T23:26:47.694Z,36.90
2019-04-05T23:29:15.182Z,39.93
2019-04-05T23:31:42.658Z,34.63
2019-04-05T23:34:10.129Z,38.67
2019-04-05T23:36:37.665Z,36.23
2019-04-05T23:39:05.770Z,39.87
2019-04-05T23:41:33.242Z,39.47
2019-04-05T23:44:00.697Z,38.27
2019-04-05T23:46:28.191Z,39.27
2019-04-05T23:48:55.679Z,37.07
2019-04-05T23:51:23.127Z,41.27
2019-04-05T23:53:50.609Z,38.23
2019-04-05T23:56:18.069Z,38.17
2019-04-05T23:58:45.549Z,42.13
